createdAt,value
2019-04-05T04:01:29.561Z,88.03
2019-04-05T04:03:55.350Z,88.10
2019-04-05T04:06:21.182Z,88.26
2019-04-05T04:08:46.996Z,88.51
2019-04-05T04:11:13.029Z,88.34
2019-04-05T04:13:38.837Z,88.16
2019-04-05T04:16:04.547Z,87.88
2019-04-05T04:18:30.698Z,87.91
2019-04-05T04:21:12.055Z,88.11
2019-04-05T04:23:38.110Z,88.38
2019-04-05T04:26:04.630Z,88.26
2019-04-05T04:28:30.436Z,88.25
2019-04-05T04:30:56.154Z,88.33
2019-04-05T04:33:22.229Z,87.88
2019-04-05T04:35:48.694Z,87.96
2019-04-05T04:38:14.471Z,88.06
2019-04-05T04:40:40.402Z,88.31
2019-04-05T04:43:06.159Z,88.22
2019-04-05T04:45:31.937Z,88.15
2019-04-05T04:47:57.753Z,88.46
2019-04-05T04:50:23.986Z,88.36
2019-04-05T04:52:50.207Z,88.11
2019-04-05T04:55:15.977Z,87.78
2019-04-05T04:57:41.994Z,87.90
2019-04-05T05:00:07.706Z,87.96
2019-04-05T05:02:33.396Z,88.00
2019-04-05T05:04:59.127Z,87.91
2019-04-05T05:07:24.850Z,88.07
2019-04-05T05:09:51.337Z,88.13
2019-04-05T05:12:17.155Z,88.18
2019-04-05T05:14:43.134Z,88.22
2019-04-05T05:17:08.882Z,88.09
2019-04-05T05:19:34.629Z,88.25
2019-04-05T05:22:00.644Z,88.06
2019-04-05T05:24:26.429Z,88.03
2019-04-05T05:26:52.588Z,87.96
2019-04-05T05:29:18.396Z,87.94
2019-04-05T05:31:44.087Z,88.05
2019-04-05T05:34:10.115Z,87.99
2019-04-05T05:36:35.917Z,87.86
2019-04-05T05:39:01.635Z,87.65
2019-04-05T05:41:27.345Z,87.49
2019-04-05T05:43:53.050Z,87.66
2019-04-05T05:46:18.774Z,87.40
2019-04-05T05:48:44.471Z,87.46
2019-04-05T05:51:10.186Z,87.32
2019-04-05T05:53:35.901Z,87.00
2019-04-05T05:56:01.612Z,87.12
2019-04-05T05:58:27.322Z,87.06
2019-04-05T06:00:53.083Z,87.09
2019-04-05T06:03:18.779Z,87.00
2019-04-05T06:05:44.815Z,86.79
2019-04-05T06:08:10.906Z,86.82
2019-04-05T06:10:36.889Z,86.95
2019-04-05T06:13:02.596Z,86.87
2019-04-05T06:15:28.622Z,86.51
2019-04-05T06:18:04.091Z,85.96
2019-04-05T06:20:21.999Z,85.79
2019-04-05T06:22:47.854Z,85.74
2019-04-05T06:25:13.671Z,85.82
2019-04-05T06:27:39.368Z,85.36
2019-04-05T06:30:05.083Z,85.27
2019-04-05T06:32:30.773Z,85.21
2019-04-05T06:34:56.494Z,84.59
2019-04-05T06:37:22.198Z,84.46
2019-04-05T06:39:48.188Z,84.80
2019-04-05T06:42:13.965Z,83.96
2019-04-05T06:44:39.681Z,83.74
2019-04-05T06:47:05.375Z,83.04
2019-04-05T06:49:31.094Z,83.07
2019-04-05T06:51:57.190Z,82.65
2019-04-05T06:54:22.967Z,82.40
2019-04-05T06:56:48.741Z,82.21
2019-04-05T06:59:14.850Z,82.24
2019-04-05T07:01:40.565Z,80.18
2019-04-05T07:04:06.590Z,80.78
2019-04-05T07:06:32.335Z,79.96
2019-04-05T07:08:58.337Z,80.19
2019-04-05T07:11:24.094Z,80.40
2019-04-05T07:13:49.792Z,79.87
2019-04-05T07:16:15.571Z,78.44
2019-04-05T07:18:41.559Z,78.40
2019-04-05T07:21:07.285Z,78.73
2019-04-05T07:23:33.348Z,77.73
2019-04-05T07:25:59.098Z,77.98
2019-04-05T07:28:25.428Z,77.70
2019-04-05T07:30:51.268Z,76.88
2019-04-05T07:33:17.070Z,76.72
2019-04-05T07:35:42.848Z,77.10
2019-04-05T07:38:09.887Z,77.57
2019-04-05T07:40:35.756Z,76.64
2019-04-05T07:43:01.852Z,77.85
2019-04-05T07:45:27.539Z,77.02
2019-04-05T07:47:53.593Z,75.80
2019-04-05T07:50:19.562Z,75.79
2019-04-05T07:52:45.280Z,75.52
2019-04-05T07:55:11.087Z,76.00
2019-04-05T07:57:36.821Z,76.25
2019-04-05T08:00:06.789Z,75.60
2019-04-05T08:02:32.603Z,73.44
2019-04-05T08:04:58.415Z,73.80
2019-04-05T08:07:28.236Z,72.54
2019-04-05T08:09:54.195Z,72.94
2019-04-05T08:12:19.974Z,73.38
2019-04-05T08:14:46.127Z,71.74
2019-04-05T08:17:11.827Z,71.48
2019-04-05T08:19:37.541Z,73.96
2019-04-05T08:22:03.352Z,72.52
2019-04-05T08:24:29.376Z,71.51
2019-04-05T08:26:55.186Z,70.93
2019-04-05T08:29:20.952Z,70.02
2019-04-05T08:31:46.970Z,70.03
2019-04-05T08:34:13.065Z,65.49
2019-04-05T08:36:39.046Z,64.18
2019-04-05T08:39:06.511Z,64.60
2019-04-05T08:41:32.331Z,65.11
2019-04-05T08:43:58.097Z,64.22
2019-04-05T08:46:24.211Z,60.71
2019-04-05T08:48:52.224Z,58.40
2019-04-05T08:51:17.564Z,64.51
2019-04-05T08:53:43.380Z,61.98
2019-04-05T08:56:09.143Z,61.84
2019-04-05T08:58:35.253Z,62.24
2019-04-05T09:01:00.939Z,61.52
2019-04-05T09:03:26.995Z,60.50
2019-04-05T09:05:52.970Z,56.47
2019-04-05T09:08:21.290Z,57.65
2019-04-05T09:10:46.407Z,55.24
2019-04-05T09:13:12.523Z,56.54
2019-04-05T09:15:38.533Z,54.40
2019-04-05T09:18:04.695Z,57.73
2019-04-05T09:20:30.657Z,59.49
2019-04-05T09:22:56.374Z,56.09
2019-04-05T09:25:22.140Z,57.81
2019-04-05T09:27:47.952Z,59.27
2019-04-05T09:30:15.928Z,59.72
2019-04-05T09:32:41.724Z,61.60
2019-04-05T09:35:07.690Z,57.97
2019-04-05T09:37:33.494Z,57.09
2019-04-05T09:39:59.610Z,53.67
2019-04-05T09:42:25.302Z,52.98
2019-04-05T09:44:51.022Z,56.41
2019-04-05T09:47:16.793Z,54.09
2019-04-05T09:49:42.603Z,52.97
2019-04-05T09:52:08.407Z,54.66
2019-04-05T09:54:34.192Z,54.41
2019-04-05T09:57:00.246Z,54.34
2019-04-05T09:59:26.219Z,54.51
2019-04-05T10:01:51.921Z,54.76
2019-04-05T10:04:18.008Z,55.16
2019-04-05T10:06:43.773Z,54.58
2019-04-05T10:09:09.851Z,56.33
2019-04-05T10:11:35.620Z,55.55
2019-04-05T10:14:01.397Z,54.60
2019-04-05T10:16:27.209Z,56.89
2019-04-05T10:18:53.018Z,55.36
2019-04-05T10:21:18.788Z,56.30
2019-04-05T10:23:44.601Z,56.48
2019-04-05T10:26:10.386Z,56.77
2019-04-05T10:28:36.173Z,56.89
2019-04-05T10:31:01.959Z,56.24
2019-04-05T10:33:27.755Z,56.35
2019-04-05T10:35:53.522Z,56.11
2019-04-05T10:38:19.332Z,55.09
2019-04-05T10:40:45.140Z,56.12
2019-04-05T10:43:10.906Z,56.74
2019-04-05T10:45:36.688Z,56.21
2019-04-05T10:48:02.778Z,56.33
2019-04-05T10:50:28.678Z,55.48
2019-04-05T10:52:54.708Z,56.11
2019-04-05T10:55:20.420Z,55.83
2019-04-05T10:57:46.126Z,55.24
2019-04-05T11:00:14.315Z,56.71
2019-04-05T11:02:40.088Z,57.87
2019-04-05T11:05:05.875Z,57.40
2019-04-05T11:07:34.848Z,56.53
2019-04-05T11:09:59.613Z,58.10
2019-04-05T11:12:25.371Z,56.37
2019-04-05T11:14:51.503Z,56.69
2019-04-05T11:17:17.454Z,56.23
2019-04-05T11:19:43.469Z,55.92
2019-04-05T11:22:09.238Z,55.77
2019-04-05T11:24:35.396Z,54.44
2019-04-05T11:27:01.142Z,53.41
2019-04-05T11:29:26.862Z,55.36
2019-04-05T11:31:57.232Z,54.75
2019-04-05T11:34:20.318Z,55.45
2019-04-05T11:36:46.413Z,56.19
2019-04-05T11:39:12.212Z,53.64
2019-04-05T11:41:37.983Z,53.93
2019-04-05T11:44:03.744Z,54.30
2019-04-05T11:46:29.791Z,54.61
2019-04-05T11:48:55.551Z,55.64
2019-04-05T11:51:21.362Z,54.76
2019-04-05T11:53:47.129Z,54.52
2019-04-05T11:56:14.941Z,54.15
2019-04-05T11:58:42.475Z,54.31
2019-04-05T12:01:13.223Z,55.82
2019-04-05T12:03:39.389Z,55.33
2019-04-05T12:06:05.098Z,55.64
2019-04-05T12:08:30.808Z,55.17
2019-04-05T12:10:56.896Z,56.76
2019-04-05T12:13:22.591Z,54.98
2019-04-05T12:15:48.637Z,56.39
2019-04-05T12:18:19.218Z,56.29
2019-04-05T12:20:49.715Z,56.82
2019-04-05T12:23:10.236Z,57.79
2019-04-05T12:25:36.391Z,57.75
2019-04-05T12:28:06.831Z,57.62
2019-04-05T12:30:30.314Z,58.48
2019-04-05T12:32:56.099Z,57.90
2019-04-05T12:35:22.097Z,57.21
2019-04-05T12:37:50.647Z,56.93
2019-04-05T12:40:16.242Z,56.71
2019-04-05T12:42:43.500Z,56.97
2019-04-05T12:45:09.488Z,57.03
2019-04-05T12:47:35.552Z,56.15
2019-04-05T12:50:01.312Z,57.21
2019-04-05T12:52:28.014Z,57.56
2019-04-05T12:54:54.924Z,57.54
2019-04-05T12:57:21.185Z,59.06
2019-04-05T12:59:46.957Z,58.63
2019-04-05T13:02:14.097Z,58.03
2019-04-05T13:04:40.708Z,57.14
2019-04-05T13:07:06.475Z,56.63
2019-04-05T13:09:32.278Z,57.59
2019-04-05T13:11:58.337Z,57.52
2019-04-05T13:14:26.192Z,56.20
2019-04-05T13:16:51.846Z,56.07
2019-04-05T13:19:17.682Z,56.29
2019-04-05T13:21:43.503Z,54.33
2019-04-05T13:24:10.108Z,56.06
2019-04-05T13:26:36.895Z,56.41
2019-04-05T13:29:03.395Z,56.94
2019-04-05T13:31:29.435Z,57.70
2019-04-05T13:33:55.636Z,57.40
2019-04-05T13:36:21.874Z,58.33
2019-04-05T13:38:54.833Z,58.71
2019-04-05T13:41:15.312Z,58.64
2019-04-05T13:43:41.381Z,57.98
2019-04-05T13:46:07.399Z,58.68
2019-04-05T13:48:33.173Z,56.83
2019-04-05T13:50:58.971Z,56.56
2019-04-05T13:53:24.751Z,57.09
2019-04-05T13:55:50.785Z,57.12
2019-04-05T13:58:16.939Z,58.52
2019-04-05T14:00:42.665Z,58.55
2019-04-05T14:03:08.652Z,58.00
2019-04-05T14:05:34.824Z,59.52
2019-04-05T14:08:10.039Z,57.79
2019-04-05T14:10:28.239Z,56.86
2019-04-05T14:12:54.061Z,57.84
2019-04-05T14:15:19.829Z,57.15
2019-04-05T14:17:45.601Z,57.64
2019-04-05T14:20:11.644Z,56.92
2019-04-05T14:22:37.410Z,58.98
2019-04-05T14:25:05.298Z,59.21
2019-04-05T14:27:34.809Z,58.10
2019-04-05T14:30:00.547Z,57.64
2019-04-05T14:32:27.012Z,57.88
2019-04-05T14:34:54.806Z,57.98
2019-04-05T14:37:22.154Z,57.42
2019-04-05T14:39:48.449Z,57.77
2019-04-05T14:42:14.786Z,58.91
2019-04-05T14:44:41.345Z,58.89
2019-04-05T14:47:07.117Z,57.67
2019-04-05T14:49:33.249Z,57.99
2019-04-05T14:52:01.061Z,57.19
2019-04-05T14:54:26.595Z,57.31
2019-04-05T14:56:52.400Z,57.39
2019-04-05T14:59:18.261Z,56.80
2019-04-05T15:01:44.637Z,57.14
2019-04-05T15:04:12.274Z,56.43
2019-04-05T15:06:38.129Z,57.78
2019-04-05T15:09:04.909Z,57.67
2019-04-05T15:11:30.672Z,56.96
2019-04-05T15:13:56.469Z,56.63
2019-04-05T15:16:23.522Z,57.83
2019-04-05T15:18:49.765Z,58.07
2019-04-05T15:21:15.470Z,57.25
2019-04-05T15:23:41.473Z,57.93
2019-04-05T15:26:08.858Z,58.39
2019-04-05T15:28:34.629Z,59.10
2019-04-05T15:31:00.449Z,58.61
2019-04-05T15:33:27.847Z,58.48
2019-04-05T15:35:54.463Z,58.83
2019-04-05T15:38:20.227Z,59.36
2019-04-05T15:40:46.040Z,59.11
2019-04-05T15:43:12.130Z,59.33
2019-04-05T15:45:38.156Z,60.76
2019-04-05T15:48:03.920Z,61.14
2019-04-05T15:50:29.700Z,59.75
2019-04-05T15:52:55.466Z,61.36
2019-04-05T15:55:21.275Z,61.26
2019-04-05T15:57:47.349Z,61.18
2019-04-05T16:00:15.067Z,60.55
2019-04-05T16:02:42.990Z,60.73
2019-04-05T16:05:08.542Z,61.51
2019-04-05T16:07:34.296Z,61.77
2019-04-05T16:10:00.065Z,61.90
2019-04-05T16:12:25.882Z,61.82
2019-04-05T16:14:51.640Z,62.47
2019-04-05T16:17:17.740Z,61.54
2019-04-05T16:19:43.480Z,62.29
2019-04-05T16:22:09.541Z,61.90
2019-04-05T16:24:35.368Z,62.13
2019-04-05T16:27:01.486Z,62.89
2019-04-05T16:29:27.461Z,62.96
2019-04-05T16:31:53.180Z,63.21
2019-04-05T16:34:19.251Z,62.98
2019-04-05T16:36:45.033Z,63.42
2019-04-05T16:39:12.696Z,64.24
2019-04-05T16:41:38.759Z,64.97
2019-04-05T16:44:04.567Z,63.55
2019-04-05T16:46:30.360Z,63.89
2019-04-05T16:48:56.123Z,64.01
2019-04-05T16:51:22.258Z,64.35
2019-04-05T16:54:01.049Z,65.03
2019-04-05T16:56:27.077Z,65.24
2019-04-05T16:58:53.110Z,64.59
2019-04-05T17:01:26.837Z,64.80
2019-04-05T17:03:46.547Z,65.12
2019-04-05T17:06:12.323Z,64.96
2019-04-05T17:08:38.139Z,65.01
2019-04-05T17:11:04.287Z,65.08
2019-04-05T17:13:29.978Z,64.46
2019-04-05T17:15:55.709Z,65.17
2019-04-05T17:18:21.493Z,64.62
2019-04-05T17:20:47.256Z,64.98
2019-04-05T17:23:13.028Z,65.06
2019-04-05T17:25:38.790Z,65.49
2019-04-05T17:28:04.582Z,65.22
2019-04-05T17:30:30.377Z,65.31
2019-04-05T17:32:56.426Z,65.94
2019-04-05T17:35:22.186Z,66.10
2019-04-05T17:37:47.955Z,66.81
2019-04-05T17:40:13.722Z,67.21
2019-04-05T17:42:39.501Z,67.27
2019-04-05T17:45:06.364Z,68.25
2019-04-05T17:47:32.176Z,68.53
2019-04-05T17:49:57.928Z,68.46
2019-04-05T17:52:24.006Z,69.01
2019-04-05T17:54:50.155Z,69.77
2019-04-05T17:57:15.867Z,70.22
2019-04-05T17:59:41.897Z,70.77
2019-04-05T18:02:07.845Z,70.39
2019-04-05T18:04:33.583Z,70.81
2019-04-05T18:06:59.353Z,70.45
2019-04-05T18:09:27.311Z,70.93
2019-04-05T18:11:52.797Z,71.95
2019-04-05T18:14:18.568Z,72.59
2019-04-05T18:16:44.377Z,72.89
2019-04-05T18:19:10.482Z,72.47
2019-04-05T18:21:36.171Z,71.60
2019-04-05T18:24:01.893Z,71.48
2019-04-05T18:26:27.673Z,71.89
2019-04-05T18:28:53.774Z,71.89
2019-04-05T18:31:19.726Z,72.11
2019-04-05T18:33:45.507Z,72.53
2019-04-05T18:36:11.277Z,71.92
2019-04-05T18:38:37.336Z,72.92
2019-04-05T18:41:03.318Z,72.65
2019-04-05T18:43:29.033Z,73.32
2019-04-05T18:45:54.825Z,73.19
2019-04-05T18:48:20.945Z,73.52
2019-04-05T18:50:48.540Z,73.79
2019-04-05T18:53:14.810Z,73.67
2019-04-05T18:55:40.626Z,73.62
2019-04-05T18:58:06.655Z,73.67
2019-04-05T19:00:32.495Z,73.59
2019-04-05T19:02:58.295Z,73.92
2019-04-05T19:05:24.446Z,74.37
2019-04-05T19:07:50.186Z,74.11
2019-04-05T19:10:16.278Z,74.40
2019-04-05T19:12:42.077Z,74.73
2019-04-05T19:15:07.992Z,75.18
2019-04-05T19:17:33.757Z,75.21
2019-04-05T19:19:59.532Z,74.97
2019-04-05T19:22:25.297Z,74.73
2019-04-05T19:24:51.078Z,75.06
2019-04-05T19:27:16.841Z,75.19
2019-04-05T19:29:42.863Z,75.81
2019-04-05T19:49:24.445Z,75.05
2019-04-05T19:51:50.254Z,75.72
2019-04-05T19:54:16.395Z,75.22
2019-04-05T19:56:42.106Z,75.03
2019-04-05T19:59:07.831Z,75.47
2019-04-05T20:01:33.608Z,75.94
2019-04-05T20:03:59.377Z,75.65
2019-04-05T20:06:25.472Z,75.47
2019-04-05T20:08:51.201Z,75.86
2019-04-05T20:11:18.002Z,75.64
2019-04-05T20:13:43.979Z,75.81
2019-04-05T20:16:09.761Z,75.49
2019-04-05T20:18:35.523Z,75.70
2019-04-05T20:21:01.299Z,75.76
2019-04-05T20:23:27.107Z,75.97
2019-04-05T20:25:52.885Z,75.93
2019-04-05T20:28:18.648Z,76.42
2019-04-05T20:30:44.426Z,76.58
2019-04-05T20:33:10.510Z,76.56
2019-04-05T20:35:36.257Z,77.35
2019-04-05T20:38:02.303Z,77.39
2019-04-05T20:40:28.007Z,77.66
2019-04-05T20:42:54.090Z,77.89
2019-04-05T20:45:19.842Z,78.11
2019-04-05T20:47:45.636Z,78.06
2019-04-05T20:50:11.369Z,78.21
2019-04-05T20:52:37.073Z,78.68
2019-04-05T20:55:05.265Z,79.43
2019-04-05T20:57:31.039Z,78.85
2019-04-05T20:59:56.804Z,79.05
